Impacts METAR Board
IDs:

KSLC - Salt Lake City Intl, UT, US

Updated at: 1800 UTC 24 Jun 2018
Potential Impact None Slight Moderate High
Time 24/06Z 24/07Z 24/08Z 24/09Z 24/10Z 24/11Z 24/12Z 24/13Z 24/14Z 24/15Z 24/16Z 24/17Z 24/18Z
Temp67 66 64 65 62 60 59 60 64 69 71 73 76
Dewpt43 40 41 45 46 43 44 45 44 43 44 42 40
Altim29.96 29.98 29.98 30.00 30.01 30.03 30.04 30.06 30.08 30.10 30.11 30.11 30.11
VIS10 10 10 10 10 10 10 10 10 10 10 10 10
CIG-- -- -- -- -- -- -- -- -- -- -- -- --
CoverCLRCLRCLRCLRCLRCLRFEWFEWFEWFEWFEWFEWFEW
FltCatVFRVFRVFRVFRVFRVFRVFRVFRVFRVFRVFRVFRVFR
WX--------------------------
WDir101034032022026010002200290320
WSpd7 5 7 6 5 4 4 0 4 5 4 3 7
WGst-- -- -- -- -- -- -- -- -- -- -- -- --
Raw hourly METARs
KSLC 240554Z 01007KT 10SM CLR 19/06 A2996 RMK AO2 SLP093 T01940061 10300 20189 51018
KSLC 240654Z 01005KT 10SM CLR 19/04 A2998 RMK AO2 SLP098 T01890044 403060183
KSLC 240754Z 34007KT 10SM CLR 18/05 A2998 RMK AO2 SLP101 T01780050
KSLC 240854Z 32006KT 10SM CLR 18/07 A3000 RMK AO2 SLP105 T01830072 53010
KSLC 240954Z 22005KT 10SM CLR 17/08 A3001 RMK AO2 SLP110 T01670078
KSLC 241054Z 26004KT 10SM CLR 16/06 A3003 RMK AO2 SLP117 T01560061
KSLC 241154Z 01004KT 10SM FEW150 15/07 A3004 RMK AO2 SLP123 T01500067 10194 20144 53013
KSLC 241254Z 00000KT 10SM FEW120 16/07 A3006 RMK AO2 SLP129 T01560072
KSLC 241354Z VRB04KT 10SM FEW140 18/07 A3008 RMK AO2 SLP137 T01780067
KSLC 241454Z 22005KT 10SM FEW100 21/06 A3010 RMK AO2 SLP143 T02060061 53017
KSLC 241554Z VRB04KT 10SM FEW080 FEW100 22/07 A3011 RMK AO2 SLP148 T02170067
KSLC 241654Z 29003KT 10SM FEW070 FEW100 23/06 A3011 RMK AO2 SLP148 T02280056
KSLC 241754Z 32007KT 10SM FEW080 24/04 A3011 RMK AO2 SLP148 T02440044 10244 20144 51004



Page loaded:  18:15 UTC  |   11:15 AM Pacific  |   12:15 PM Mountain  |   01:15 PM Central  |   02:15 PM Eastern

 

ADVISORIES

FORECASTS

FORECASTS

OBSERVATIONS

USER TOOLS

ABOUT US